Time;durP1;ratioP1;P1;durP2;ratioP2;P2;SDS_P1;SDS_P2;PMS_P1;PMS_P2;Temp;Humidity;BMP_temperature;BMP_pressure;BME280_temperature;BME280_humidity;BME280_pressure;Samples;Min_cycle;Max_cycle;Signal;HPM_P1;HPM_P2
2021/03/06 00:00:59;;;;;;;9.20;7.45;;;;;;;3.64;51.96;101765.47;10336601;28;20050;-60
2021/03/06 00:06:03;;;;;;;11.73;8.00;;;;;;;3.57;52.28;101776.22;10335397;28;20159;-60
2021/03/06 00:11:04;;;;;;;9.55;8.18;;;;;;;3.45;52.78;101775.66;10337619;28;20124;-60
2021/03/06 00:16:06;;;;;;;10.05;7.28;;;;;;;3.63;51.85;101789.22;10333726;28;20455;-59
2021/03/06 00:21:07;;;;;;;7.47;6.78;;;;;;;3.45;51.82;101766.88;10302883;22;20411;-56
2021/03/06 00:26:20;;;;;;;7.05;6.28;;;;;;;3.48;51.17;101791.38;10258293;28;20492;-58
2021/03/06 00:31:21;;;;;;;7.30;6.20;;;;;;;3.39;51.31;101791.59;10254465;28;20130;-54
2021/03/06 00:36:22;;;;;;;7.90;6.10;;;;;;;3.34;51.52;101789.06;10259701;28;20070;-56
2021/03/06 00:41:27;;;;;;;7.32;6.38;;;;;;;3.35;51.30;101780.28;10257338;28;20158;-55
2021/03/06 00:46:29;;;;;;;6.10;5.50;;;;;;;3.32;51.45;101783.00;10252979;28;20250;-56
2021/03/06 00:51:32;;;;;;;7.05;6.15;;;;;;;3.32;51.41;101792.66;10252976;28;20043;-55
2021/03/06 00:56:41;;;;;;;7.45;5.75;;;;;;;3.09;51.10;101761.66;10257673;28;20565;-54
2021/03/06 01:01:42;;;;;;;7.88;5.38;;;;;;;3.22;51.66;101778.00;10260878;28;20599;-55
2021/03/06 01:06:44;;;;;;;7.40;6.32;;;;;;;3.15;51.32;101772.91;10258827;28;20150;-55
2021/03/06 01:11:45;;;;;;;7.20;6.45;;;;;;;3.08;51.58;101771.31;10261478;28;20062;-55
2021/03/06 01:16:47;;;;;;;8.35;5.70;;;;;;;3.08;51.87;101770.44;10256317;28;20039;-55
2021/03/06 01:21:49;;;;;;;6.13;5.50;;;;;;;3.12;51.88;101783.50;10271635;28;20156;-54
2021/03/06 01:27:06;;;;;;;6.32;5.72;;;;;;;2.98;51.89;101775.06;10266226;28;20192;-54
2021/03/06 01:32:08;;;;;;;6.97;5.97;;;;;;;2.89;52.37;101770.03;10266196;28;20074;-56
2021/03/06 01:37:09;;;;;;;7.47;6.00;;;;;;;2.91;52.27;101774.38;10264414;28;20469;-55
2021/03/06 01:42:10;;;;;;;6.03;5.15;;;;;;;3.00;51.77;101782.03;10268288;28;20046;-55
2021/03/06 01:47:12;;;;;;;7.93;6.65;;;;;;;2.90;52.34;101774.38;10264308;28;20125;-55
2021/03/06 01:52:15;;;;;;;5.80;5.20;;;;;;;2.88;52.12;101770.94;10266133;28;20057;-55
2021/03/06 01:57:28;;;;;;;6.97;5.57;;;;;;;2.83;52.37;101768.41;10262303;28;20126;-56
2021/03/06 02:02:29;;;;;;;8.60;6.10;;;;;;;2.77;52.91;101765.94;10260940;28;20051;-55
2021/03/06 02:07:32;;;;;;;7.85;5.90;;;;;;;2.68;52.86;101780.16;10263711;28;20054;-56
2021/03/06 02:12:38;;;;;;;7.10;5.65;;;;;;;2.55;53.18;101761.19;10260234;28;20121;-56
2021/03/06 02:17:53;;;;;;;8.50;5.47;;;;;;;2.71;52.94;101766.94;10273441;28;20078;-55
2021/03/06 02:23:09;;;;;;;7.38;5.63;;;;;;;2.75;52.31;101773.88;10267590;28;20459;-56
2021/03/06 02:28:44;;;;;;;6.35;5.55;;;;;;;2.66;52.89;101771.47;10260886;28;20114;-55
2021/03/06 02:34:16;;;;;;;6.28;5.53;;;;;;;2.70;52.51;101775.72;10269064;28;20672;-56
2021/03/06 02:39:21;;;;;;;6.30;5.57;;;;;;;2.59;52.47;101777.75;10263789;28;20058;-55
2021/03/06 02:44:25;;;;;;;7.63;5.57;;;;;;;2.59;52.94;101786.50;10266668;28;20078;-56
2021/03/06 02:49:27;;;;;;;6.68;6.05;;;;;;;2.61;52.77;101786.47;10262897;28;20094;-55
2021/03/06 02:54:28;;;;;;;7.57;5.82;;;;;;;2.67;52.43;101783.69;10258992;28;20047;-56
2021/03/06 02:59:35;;;;;;;7.45;6.10;;;;;;;2.59;52.18;101785.63;10255195;28;20156;-55
2021/03/06 03:05:07;;;;;;;9.00;5.95;;;;;;;2.52;52.26;101782.25;10263746;28;20070;-55
2021/03/06 03:10:14;;;;;;;6.80;5.57;;;;;;;2.56;51.96;101785.72;10254227;28;20070;-56
2021/03/06 03:15:19;;;;;;;6.68;5.72;;;;;;;2.46;52.24;101778.03;10260289;28;20209;-56
2021/03/06 03:20:51;;;;;;;7.10;6.40;;;;;;;2.37;52.98;101790.50;10251363;28;20050;-56
2021/03/06 03:25:54;;;;;;;6.63;5.30;;;;;;;2.42;53.12;101781.63;10266227;28;20133;-56
2021/03/06 03:31:00;;;;;;;7.53;6.32;;;;;;;2.47;53.04;101795.50;10253983;28;20484;-57
2021/03/06 03:36:04;;;;;;;8.70;5.90;;;;;;;2.30;53.04;101768.75;10259568;28;20057;-56
2021/03/06 03:41:11;;;;;;;6.97;5.75;;;;;;;2.35;53.38;101793.16;10258572;28;20047;-57
2021/03/06 03:46:13;;;;;;;7.38;5.82;;;;;;;2.38;52.73;101789.59;10257080;28;20540;-55
2021/03/06 03:51:15;;;;;;;6.25;5.65;;;;;;;2.30;52.85;101788.00;10269648;28;20054;-55
2021/03/06 03:56:17;;;;;;;6.60;5.68;;;;;;;2.30;53.00;101797.66;10259806;28;20062;-54
2021/03/06 04:01:18;;;;;;;7.25;5.75;;;;;;;2.14;52.94;101785.75;10259990;28;20469;-55
2021/03/06 04:06:19;;;;;;;6.38;5.47;;;;;;;2.28;52.85;101797.69;10255257;28;20069;-56
2021/03/06 04:11:20;;;;;;;7.90;6.28;;;;;;;2.24;53.13;101797.78;10256972;28;20467;-56
2021/03/06 04:16:22;;;;;;;6.85;5.78;;;;;;;2.22;53.33;101792.56;10263332;28;20116;-55
2021/03/06 04:21:23;;;;;;;6.78;5.50;;;;;;;2.17;52.71;101801.44;10262143;28;20066;-54
2021/03/06 04:26:24;;;;;;;7.28;6.20;;;;;;;2.01;53.34;101790.38;10262640;28;20110;-55
2021/03/06 04:31:26;;;;;;;6.97;5.10;;;;;;;2.08;53.32;101810.38;10260442;28;20058;-54
2021/03/06 04:36:28;;;;;;;7.88;6.22;;;;;;;2.03;53.50;101807.84;10259688;28;20050;-55
2021/03/06 04:41:29;;;;;;;6.82;5.53;;;;;;;2.10;53.41;101811.19;10255266;28;20062;-54
2021/03/06 04:46:31;;;;;;;6.03;4.88;;;;;;;2.06;53.51;101810.41;10267506;28;20075;-55
2021/03/06 04:51:33;;;;;;;8.45;5.65;;;;;;;2.02;53.89;101813.97;10264818;28;20078;-57
2021/03/06 04:56:34;;;;;;;6.15;5.40;;;;;;;2.06;53.37;101815.66;10260303;28;20067;-54
2021/03/06 05:01:35;;;;;;;6.57;5.22;;;;;;;2.05;53.46;101811.28;10255478;28;20141;-57
2021/03/06 05:06:37;;;;;;;8.27;5.70;;;;;;;1.95;53.05;101812.38;10252610;28;20047;-55
2021/03/06 05:11:39;;;;;;;7.03;5.22;;;;;;;1.91;53.64;101814.19;10258516;28;20051;-55
2021/03/06 05:16:40;;;;;;;8.85;5.60;;;;;;;1.86;53.61;101823.06;10264139;28;20134;-55
2021/03/06 05:21:41;;;;;;;10.38;5.40;;;;;;;1.88;53.72;101831.78;10258187;28;20592;-55
2021/03/06 05:26:43;;;;;;;7.40;5.43;;;;;;;1.90;54.17;101824.72;10262511;28;20097;-55
2021/03/06 05:31:44;;;;;;;7.15;5.80;;;;;;;1.92;53.77;101833.44;10267346;28;20133;-55
2021/03/06 05:36:45;;;;;;;8.43;6.30;;;;;;;1.83;53.73;101839.75;10264324;28;20071;-55
2021/03/06 05:41:47;;;;;;;5.78;5.18;;;;;;;1.80;53.80;101838.94;10263806;28;20050;-54
2021/03/06 05:46:50;;;;;;;6.90;5.15;;;;;;;1.86;53.77;101833.56;10265095;28;20117;-54
2021/03/06 05:51:52;;;;;;;6.25;4.88;;;;;;;1.89;53.93;101844.88;10259897;28;20154;-54
2021/03/06 05:56:54;;;;;;;7.18;5.75;;;;;;;1.85;54.23;101850.22;10284629;28;20455;-53
2021/03/06 06:01:56;;;;;;;6.10;5.50;;;;;;;1.68;53.38;101827.78;10252656;28;20082;-54
2021/03/06 06:07:00;;;;;;;7.93;5.00;;;;;;;1.82;53.90;101845.00;10235804;28;20046;-54
2021/03/06 06:12:05;;;;;;;8.35;6.20;;;;;;;1.82;53.89;101838.00;10238082;28;20047;-54
2021/03/06 06:17:11;;;;;;;8.30;5.15;;;;;;;1.86;53.36;101844.94;10237279;28;20076;-54
2021/03/06 06:22:16;;;;;;;6.50;5.50;;;;;;;1.86;53.33;101850.19;10285878;23;20132;-64
2021/03/06 06:27:24;;;;;;;7.50;6.65;;;;;;;1.84;53.57;101848.47;10318464;28;20073;-66
2021/03/06 06:32:27;;;;;;;6.88;6.15;;;;;;;1.94;53.45;101852.69;10303553;28;20242;-68
2021/03/06 06:37:29;;;;;;;6.00;4.70;;;;;;;2.10;52.91;101872.50;10301582;28;20055;-66
2021/03/06 06:42:32;;;;;;;6.75;6.05;;;;;;;2.33;52.60;101865.94;10315571;28;20098;-66
2021/03/06 06:47:39;;;;;;;7.20;5.82;;;;;;;2.46;52.04;101861.25;10297615;28;20145;-65
2021/03/06 06:52:43;;;;;;;8.05;5.47;;;;;;;2.69;51.98;101863.41;10301660;28;20085;-68
2021/03/06 06:57:51;;;;;;;8.65;5.75;;;;;;;2.79;51.84;101869.31;10299540;28;20043;-65
2021/03/06 07:02:58;;;;;;;7.75;5.85;;;;;;;3.03;50.70;101874.94;10299795;28;20078;-66
2021/03/06 07:08:05;;;;;;;7.43;5.45;;;;;;;3.11;50.59;101887.03;10297055;28;20050;-69
2021/03/06 07:13:10;;;;;;;8.15;6.10;;;;;;;3.23;50.16;101874.47;10327166;28;20209;-68
2021/03/06 07:18:17;;;;;;;7.40;6.53;;;;;;;3.35;49.48;101869.78;10304314;28;20387;-69
2021/03/06 07:23:24;;;;;;;6.25;5.43;;;;;;;3.61;49.08;101885.84;10302732;28;20140;-67
2021/03/06 07:28:27;;;;;;;5.95;5.00;;;;;;;3.84;48.69;101883.47;10310599;28;20129;-69
2021/03/06 07:33:29;;;;;;;6.25;5.63;;;;;;;4.12;48.40;101892.41;10301646;28;20520;-67
2021/03/06 07:38:31;;;;;;;6.07;5.47;;;;;;;4.40;47.75;101884.59;10301205;28;20577;-70
2021/03/06 07:43:40;;;;;;;6.20;5.60;;;;;;;4.65;46.85;101871.53;10300801;28;20058;-69
2021/03/06 07:48:47;;;;;;;5.47;4.80;;;;;;;4.72;46.35;101877.50;10314276;28;20133;-67
2021/03/06 07:53:50;;;;;;;5.07;4.43;;;;;;;4.89;44.50;101872.56;10312254;28;20066;-68
2021/03/06 07:58:53;;;;;;;6.50;4.72;;;;;;;5.15;44.52;101881.47;10292558;28;20057;-69
2021/03/06 08:03:54;;;;;;;7.10;4.78;;;;;;;5.33;44.05;101885.28;10301368;28;20081;-68
2021/03/06 08:09:10;;;;;;;5.40;4.57;;;;;;;5.50;43.93;101892.66;10331467;28;20054;-67
2021/03/06 08:14:28;;;;;;;;;;;;;;;5.68;43.03;101890.31;10299089;28;20157;-68
2021/03/06 08:19:30;;;;;;;5.90;4.30;;;;;;;5.90;42.78;101885.13;10309515;28;19910;-69
2021/03/06 08:24:31;;;;;;;6.07;4.47;;;;;;;6.08;42.08;101891.59;10333014;28;20111;-67
2021/03/06 08:29:36;;;;;;;6.43;5.30;;;;;;;6.31;41.57;101894.28;10336802;28;20062;-66
2021/03/06 08:34:48;;;;;;;;;;;;;;;6.37;41.58;101895.84;10288349;28;20062;-67
2021/03/06 08:39:54;;;;;;;6.13;4.93;;;;;;;6.62;40.96;101895.81;10315126;28;20012;-67
2021/03/06 08:44:58;;;;;;;6.13;4.57;;;;;;;6.87;40.62;101890.41;10299014;28;20122;-67
2021/03/06 08:50:00;;;;;;;4.77;4.37;;;;;;;7.11;40.34;101885.06;10298167;28;20504;-67
2021/03/06 08:55:03;;;;;;;6.28;4.28;;;;;;;7.45;39.86;101886.38;10297948;28;20081;-69
2021/03/06 09:00:17;;;;;;;6.43;4.63;;;;;;;7.71;39.54;101882.63;10298817;28;20563;-67
2021/03/06 09:05:26;;;;;;;6.00;4.30;;;;;;;7.73;39.02;101875.47;10294295;28;20201;-67
2021/03/06 09:10:41;;;;;;;8.57;6.03;;;;;;;7.87;38.63;101879.31;10295167;28;20133;-68
2021/03/06 09:15:47;;;;;;;6.18;4.88;;;;;;;8.30;36.84;101885.38;10293151;28;20268;-66
2021/03/06 09:20:57;;;;;;;7.13;5.47;;;;;;;8.61;37.14;101881.38;10306788;28;20046;-67
2021/03/06 09:26:05;;;;;;;6.47;5.25;;;;;;;8.96;35.49;101873.53;10292792;28;20074;-69
2021/03/06 09:31:21;;;;;;;6.95;5.65;;;;;;;8.01;38.06;101882.22;10296060;28;20133;-66
2021/03/06 09:36:28;;;;;;;5.60;4.72;;;;;;;9.01;36.35;101871.53;10298902;28;20549;-69
2021/03/06 09:41:35;;;;;;;5.43;4.60;;;;;;;9.75;34.19;101873.19;10297569;28;20054;-67
2021/03/06 09:46:37;;;;;;;5.97;5.03;;;;;;;10.41;33.33;101874.19;10303940;28;20165;-67
2021/03/06 09:51:43;;;;;;;5.03;4.55;;;;;;;10.75;32.49;101869.69;10296589;28;20053;-69
2021/03/06 09:56:51;;;;;;;5.75;4.63;;;;;;;10.82;31.74;101865.72;10304909;28;20631;-68
2021/03/06 10:01:53;;;;;;;5.05;4.55;;;;;;;11.35;31.29;101868.97;10314894;28;20050;-67
2021/03/06 10:06:57;;;;;;;4.38;3.97;;;;;;;12.41;29.32;101859.06;10302509;28;20524;-67
2021/03/06 10:12:10;;;;;;;5.05;4.28;;;;;;;13.32;26.95;101858.56;10296299;28;20082;-68
2021/03/06 10:17:13;;;;;;;5.45;3.78;;;;;;;16.90;21.90;101852.84;10300774;28;20185;-68
2021/03/06 10:22:15;;;;;;;4.78;3.00;;;;;;;18.93;19.24;101858.81;10312828;28;20373;-67
2021/03/06 10:27:17;;;;;;;3.92;3.38;;;;;;;19.93;18.03;101856.78;10310399;28;20074;-70
2021/03/06 10:32:18;;;;;;;4.35;3.63;;;;;;;18.56;19.86;101845.91;10314163;28;20052;-69
2021/03/06 10:37:22;;;;;;;3.03;2.40;;;;;;;16.87;19.54;101845.88;10327810;28;20047;-69
2021/03/06 10:42:38;;;;;;;3.50;3.20;;;;;;;17.28;20.41;101846.97;10329410;28;20594;-69
2021/03/06 10:47:50;;;;;;;3.55;3.03;;;;;;;18.84;17.50;101843.41;10303644;28;20132;-68
2021/03/06 10:53:09;;;;;;;3.10;2.70;;;;;;;22.78;15.46;101840.78;10304089;28;20046;-71
2021/03/06 10:58:13;;;;;;;2.50;2.30;;;;;;;25.08;12.72;101827.78;10305896;28;20052;-68
2021/03/06 11:03:15;;;;;;;2.70;2.38;;;;;;;25.64;12.01;101827.50;10336470;28;20030;-67
2021/03/06 11:08:19;;;;;;;2.50;2.15;;;;;;;27.16;9.53;101827.81;10319858;28;20141;-69
2021/03/06 11:13:20;;;;;;;2.35;2.15;;;;;;;27.81;9.55;101824.16;10303365;28;20470;-71
2021/03/06 11:18:21;;;;;;;2.67;2.45;;;;;;;28.25;9.38;101808.44;10333190;28;20078;-68
2021/03/06 11:23:23;;;;;;;4.13;2.35;;;;;;;29.62;9.24;101803.69;10329839;28;20058;-68
2021/03/06 11:28:24;;;;;;;3.30;2.30;;;;;;;30.62;9.02;101797.03;10349666;28;20524;-68
2021/03/06 11:33:27;;;;;;;3.30;2.40;;;;;;;31.33;8.15;101798.69;10300419;28;20046;-68
2021/03/06 11:38:29;;;;;;;2.42;2.22;;;;;;;32.16;7.83;101787.47;10302105;28;20047;-70
2021/03/06 11:43:30;;;;;;;2.30;2.10;;;;;;;33.13;6.88;101778.25;10300074;28;20050;-71
2021/03/06 11:48:32;;;;;;;4.07;2.50;;;;;;;32.01;7.23;101766.66;10303305;28;20082;-71
2021/03/06 11:53:33;;;;;;;2.28;2.08;;;;;;;32.58;6.72;101760.84;10300417;28;20137;-70
2021/03/06 11:58:35;;;;;;;2.38;2.08;;;;;;;32.23;7.29;101757.94;10296339;28;20060;-69
2021/03/06 12:03:36;;;;;;;2.60;2.40;;;;;;;33.37;6.22;101743.25;10323773;28;20066;-69
2021/03/06 12:08:37;;;;;;;3.70;2.65;;;;;;;35.18;9.15;101726.38;10294888;28;20046;-72
2021/03/06 12:13:38;;;;;;;3.80;2.60;;;;;;;35.83;5.83;101712.91;10320624;28;20101;-68
2021/03/06 12:18:40;;;;;;;2.15;1.98;;;;;;;35.48;5.22;101705.78;10308777;28;20068;-71
2021/03/06 12:23:42;;;;;;;2.38;2.00;;;;;;;34.61;5.63;101701.63;10300334;28;20054;-70
2021/03/06 12:28:43;;;;;;;2.28;2.08;;;;;;;35.32;4.95;101690.06;10308482;22;20050;-59
2021/03/06 12:33:45;;;;;;;3.03;2.25;;;;;;;36.17;4.85;101684.19;10274065;28;20575;-57
2021/03/06 12:38:46;;;;;;;2.90;2.70;;;;;;;36.15;5.68;101678.88;10270439;28;20071;-57
2021/03/06 12:43:47;;;;;;;3.28;2.88;;;;;;;36.54;5.20;101676.00;10269564;28;20155;-57
2021/03/06 12:48:50;;;;;;;2.55;2.35;;;;;;;35.92;5.10;101652.34;10262544;28;20124;-57
2021/03/06 12:53:51;;;;;;;2.33;2.13;;;;;;;36.07;5.25;101654.44;10270630;28;20054;-58
2021/03/06 12:58:52;;;;;;;2.05;1.80;;;;;;;37.04;4.95;101642.50;10268094;28;20206;-57
2021/03/06 13:03:53;;;;;;;2.08;1.85;;;;;;;36.87;4.83;101639.91;10273334;28;20053;-57
2021/03/06 13:08:55;;;;;;;2.63;2.40;;;;;;;36.73;4.58;101628.41;10278889;28;20062;-58
2021/03/06 13:13:56;;;;;;;3.38;2.00;;;;;;;36.95;4.31;101615.28;10281188;28;20058;-57
2021/03/06 13:18:57;;;;;;;3.08;2.08;;;;;;;37.44;4.10;101619.72;10283940;28;20050;-58
2021/03/06 13:23:58;;;;;;;1.80;1.70;;;;;;;37.29;4.94;101603.84;10274451;28;20066;-59
2021/03/06 13:29:00;;;;;;;1.92;1.65;;;;;;;37.16;4.50;101604.28;10277860;28;20047;-58
2021/03/06 13:34:01;;;;;;;3.17;2.00;;;;;;;36.79;4.48;101602.41;10274785;28;20093;-58
2021/03/06 13:39:04;;;;;;;1.80;1.70;;;;;;;36.68;4.37;101595.94;10280618;28;20666;-58
2021/03/06 13:44:06;;;;;;;2.35;1.50;;;;;;;35.73;4.32;101582.59;10268809;28;20073;-58
2021/03/06 13:49:07;;;;;;;1.90;1.65;;;;;;;36.80;4.76;101587.47;10276774;28;20161;-58
2021/03/06 13:54:09;;;;;;;1.63;1.48;;;;;;;35.82;4.81;101572.75;10276883;28;20042;-58
2021/03/06 13:59:10;;;;;;;2.05;1.73;;;;;;;35.81;4.50;101573.84;10279429;28;20200;-58
2021/03/06 14:04:11;;;;;;;2.38;2.17;;;;;;;35.86;4.50;101565.56;10273293;28;20051;-58
2021/03/06 14:09:12;;;;;;;2.60;2.15;;;;;;;35.92;4.56;101564.53;10276993;28;20137;-58
2021/03/06 14:14:13;;;;;;;2.30;2.10;;;;;;;35.59;4.79;101543.41;10280421;28;20641;-58
2021/03/06 14:19:15;;;;;;;2.25;2.00;;;;;;;34.80;5.23;101547.38;10270663;28;20400;-58
2021/03/06 14:24:17;;;;;;;2.22;2.03;;;;;;;33.70;5.53;101543.03;10274363;28;20053;-57
2021/03/06 14:29:18;;;;;;;2.13;1.70;;;;;;;34.40;5.33;101537.38;10271457;28;20128;-58
2021/03/06 14:34:19;;;;;;;2.03;1.90;;;;;;;33.17;5.55;101542.25;10267359;28;20050;-56
2021/03/06 14:39:21;;;;;;;2.10;1.90;;;;;;;31.42;6.88;101515.03;10273939;28;20162;-56
2021/03/06 14:44:22;;;;;;;2.33;2.05;;;;;;;30.55;7.04;101530.59;10256082;28;20131;-61
2021/03/06 14:49:23;;;;;;;2.85;2.20;;;;;;;27.50;8.34;101527.34;10276431;28;20117;-57
2021/03/06 14:54:25;;;;;;;2.40;2.17;;;;;;;23.36;10.69;101517.59;10271772;28;20049;-57
2021/03/06 14:59:27;;;;;;;4.28;2.55;;;;;;;20.70;12.70;101516.59;10272073;28;20046;-56
2021/03/06 15:04:28;;;;;;;2.30;2.10;;;;;;;19.36;13.81;101509.25;10272622;28;20212;-56
2021/03/06 15:09:30;;;;;;;2.20;2.00;;;;;;;18.32;14.81;101504.75;10256480;28;20431;-55
2021/03/06 15:14:32;;;;;;;2.05;1.85;;;;;;;17.66;16.54;101514.34;10276521;28;20208;-58
2021/03/06 15:19:33;;;;;;;3.20;2.90;;;;;;;16.77;16.88;101498.03;10263836;28;20656;-55
2021/03/06 15:24:34;;;;;;;3.58;2.80;;;;;;;16.12;17.06;101483.91;10257822;28;20130;-55
2021/03/06 15:29:36;;;;;;;2.65;2.45;;;;;;;15.61;17.67;101496.97;10266398;28;21224;-54
2021/03/06 15:34:37;;;;;;;2.95;2.20;;;;;;;14.93;17.83;101490.88;10268875;28;20078;-54
2021/03/06 15:39:38;;;;;;;4.65;2.80;;;;;;;14.29;18.31;101484.16;10268507;28;20459;-54
2021/03/06 15:44:39;;;;;;;2.95;2.75;;;;;;;13.94;18.74;101493.88;10268173;28;20208;-54
2021/03/06 15:49:41;;;;;;;3.35;2.97;;;;;;;13.67;18.72;101491.47;10268585;28;20050;-54
2021/03/06 15:54:42;;;;;;;2.72;2.53;;;;;;;13.48;19.94;101480.41;10270107;28;20438;-56
2021/03/06 15:59:46;;;;;;;3.93;2.80;;;;;;;13.05;20.01;101479.84;10267706;28;20070;-56
2021/03/06 16:04:48;;;;;;;3.08;2.40;;;;;;;12.89;19.81;101472.06;10266450;28;20071;-55
2021/03/06 16:09:49;;;;;;;2.65;2.45;;;;;;;12.50;20.39;101441.00;10265139;28;20149;-55
2021/03/06 16:14:50;;;;;;;2.80;2.50;;;;;;;12.44;20.67;101462.78;10260210;28;20180;-55
2021/03/06 16:19:51;;;;;;;4.28;3.00;;;;;;;12.13;20.85;101446.19;10258904;28;20976;-55
2021/03/06 16:24:53;;;;;;;4.00;3.25;;;;;;;11.91;21.54;101442.28;10257715;28;20132;-59
2021/03/06 16:29:56;;;;;;;4.63;3.78;;;;;;;11.68;22.33;101444.69;10260334;28;20132;-55
2021/03/06 16:34:58;;;;;;;3.97;3.53;;;;;;;11.50;23.38;101448.56;10265714;28;20085;-55
2021/03/06 16:39:59;;;;;;;4.93;4.22;;;;;;;11.20;24.42;101428.28;10265790;28;20289;-55
2021/03/06 16:45:01;;;;;;;4.93;4.13;;;;;;;11.07;26.06;101438.00;10260488;28;20133;-56
2021/03/06 16:50:04;;;;;;;4.70;4.30;;;;;;;10.88;26.53;101444.47;10284644;28;20058;-60
2021/03/06 16:55:06;;;;;;;6.78;4.60;;;;;;;10.73;28.08;101429.47;10263988;28;20051;-56
2021/03/06 17:00:12;;;;;;;8.02;6.30;;;;;;;10.60;27.89;101426.72;10267925;28;20081;-55
2021/03/06 17:05:14;;;;;;;5.55;4.90;;;;;;;10.24;29.31;101444.81;10267639;28;20544;-56
2021/03/06 17:10:15;;;;;;;5.40;4.90;;;;;;;10.12;28.49;101418.06;10256338;28;20054;-55
2021/03/06 17:15:17;;;;;;;6.45;5.25;;;;;;;10.05;28.75;101437.06;10267801;28;20210;-56
2021/03/06 17:20:18;;;;;;;5.53;5.03;;;;;;;9.75;29.75;101425.59;10260526;28;20231;-55
2021/03/06 17:25:20;;;;;;;4.68;4.28;;;;;;;9.51;29.96;101413.59;10264450;28;20487;-55
2021/03/06 17:30:22;;;;;;;6.28;5.28;;;;;;;9.55;30.55;101443.56;10262827;28;20138;-56
2021/03/06 17:35:23;;;;;;;6.38;4.93;;;;;;;9.49;30.73;101441.25;10266440;28;20177;-55
2021/03/06 17:40:24;;;;;;;6.38;5.55;;;;;;;9.44;30.50;101454.75;10262082;28;20126;-56
2021/03/06 17:45:25;;;;;;;6.47;4.78;;;;;;;9.31;31.37;101440.47;10259459;28;20094;-55
2021/03/06 17:50:43;;;;;;;5.90;5.10;;;;;;;9.03;31.62;101442.84;10266701;28;20097;-56
2021/03/06 17:55:44;;;;;;;5.97;5.07;;;;;;;8.93;32.02;101443.44;10269401;28;20415;-56
2021/03/06 18:00:46;;;;;;;5.75;5.13;;;;;;;8.89;32.20;101448.09;10269516;28;20332;-57
2021/03/06 18:05:48;;;;;;;6.03;5.43;;;;;;;8.41;32.77;101386.91;10274545;28;20081;-57
2021/03/06 18:10:49;;;;;;;6.55;5.95;;;;;;;8.63;33.16;101439.72;10270760;28;20046;-55
2021/03/06 18:15:51;;;;;;;6.60;6.00;;;;;;;8.53;33.44;101443.81;10277928;28;20058;-56
2021/03/06 18:20:53;;;;;;;10.50;7.53;;;;;;;8.46;33.52;101437.09;10266915;28;20050;-55
2021/03/06 18:25:55;;;;;;;9.57;8.55;;;;;;;8.31;33.96;101426.31;10296116;22;20129;-68
2021/03/06 18:30:57;;;;;;;7.53;6.65;;;;;;;8.27;34.22;101434.50;10342390;28;20057;-67
2021/03/06 18:36:00;;;;;;;17.40;12.82;;;;;;;8.24;34.53;101432.03;10344119;28;20159;-70
2021/03/06 18:41:01;;;;;;;13.02;10.00;;;;;;;8.16;34.48;101437.72;10361845;28;20187;-69
2021/03/06 18:46:02;;;;;;;11.05;8.80;;;;;;;8.08;33.94;101435.47;10348132;28;20156;-69
2021/03/06 18:51:04;;;;;;;11.32;9.13;;;;;;;8.03;34.50;101437.50;10349715;28;20042;-69
2021/03/06 18:56:06;;;;;;;10.70;8.40;;;;;;;8.16;35.76;101442.19;10347326;28;20578;-69
2021/03/06 19:01:07;;;;;;;17.98;14.13;;;;;;;8.06;33.55;101447.97;10360051;28;20074;-70
2021/03/06 19:06:10;;;;;;;7.03;6.25;;;;;;;7.95;34.27;101439.69;10357317;28;20050;-70
2021/03/06 19:11:11;;;;;;;8.30;6.80;;;;;;;7.90;34.01;101431.97;10347540;28;20050;-70
2021/03/06 19:16:14;;;;;;;9.45;8.20;;;;;;;7.66;34.85;101439.34;10347046;28;20137;-70
2021/03/06 19:21:16;;;;;;;10.25;8.75;;;;;;;7.52;34.65;101441.81;10344956;28;20159;-69
2021/03/06 19:26:17;;;;;;;11.30;9.88;;;;;;;7.47;34.98;101438.53;10345335;28;20480;-70
2021/03/06 19:31:20;;;;;;;9.82;8.52;;;;;;;7.37;34.36;101454.88;10357358;28;20168;-70
2021/03/06 19:36:22;;;;;;;9.05;8.25;;;;;;;7.14;34.75;101452.44;10343431;28;20046;-70
2021/03/06 19:41:23;;;;;;;8.93;7.97;;;;;;;7.18;34.26;101456.69;10346463;28;20763;-71
2021/03/06 19:46:25;;;;;;;7.80;7.00;;;;;;;7.15;33.95;101452.38;10346697;28;20129;-71
2021/03/06 19:51:27;;;;;;;8.45;7.18;;;;;;;7.19;34.17;101459.25;10363482;28;20617;-70
2021/03/06 19:56:29;;;;;;;7.03;6.32;;;;;;;7.08;34.86;101458.88;10373501;28;20090;-70
2021/03/06 20:01:35;;;;;;;6.47;5.90;;;;;;;6.88;34.10;101457.19;10351221;28;20090;-73
2021/03/06 20:06:36;;;;;;;7.18;5.85;;;;;;;6.84;34.47;101460.88;10345923;28;20421;-69
2021/03/06 20:11:38;;;;;;;7.90;7.10;;;;;;;6.80;34.94;101464.59;10374244;28;20054;-70
2021/03/06 20:16:39;;;;;;;7.70;6.95;;;;;;;6.68;35.40;101471.28;10376125;28;20029;-71
2021/03/06 20:21:41;;;;;;;7.57;6.78;;;;;;;6.59;35.66;101467.28;10366039;28;20058;-69
2021/03/06 20:26:43;;;;;;;9.90;8.13;;;;;;;6.49;35.68;101471.25;10342349;28;20054;-71
2021/03/06 20:31:45;;;;;;;7.70;6.90;;;;;;;6.47;35.93;101475.75;10340970;28;20524;-70
2021/03/06 20:36:47;;;;;;;9.20;8.15;;;;;;;6.34;36.24;101472.78;10342913;28;20081;-69
2021/03/06 20:41:50;;;;;;;8.07;7.28;;;;;;;6.36;36.76;101471.81;10339989;28;20487;-72
2021/03/06 20:46:51;;;;;;;7.82;7.03;;;;;;;6.25;36.42;101473.19;10341371;28;20133;-68
2021/03/06 20:51:52;;;;;;;7.82;6.78;;;;;;;6.22;36.65;101468.03;10343519;28;20454;-70
2021/03/06 20:56:54;;;;;;;7.63;6.82;;;;;;;6.16;37.17;101475.28;10354893;28;20148;-69
2021/03/06 21:01:55;;;;;;;7.00;6.30;;;;;;;6.10;37.01;101470.25;10339714;28;20042;-70
2021/03/06 21:06:57;;;;;;;7.18;6.30;;;;;;;6.09;37.10;101478.25;10338483;28;20054;-72
2021/03/06 21:12:00;;;;;;;7.43;6.65;;;;;;;6.10;37.36;101480.84;10337926;28;20149;-69
2021/03/06 21:17:01;;;;;;;7.07;6.35;;;;;;;6.10;37.00;101480.84;10356201;28;20070;-70
2021/03/06 21:22:02;;;;;;;7.82;6.68;;;;;;;6.13;36.88;101470.13;10339543;28;20050;-70
2021/03/06 21:27:04;;;;;;;6.63;6.03;;;;;;;6.10;36.90;101464.13;10344200;28;20058;-70
2021/03/06 21:32:05;;;;;;;6.88;6.13;;;;;;;6.03;36.83;101460.03;10346130;28;20045;-68
2021/03/06 21:37:07;;;;;;;6.95;6.25;;;;;;;5.92;36.88;101453.38;10352900;28;20061;-76
2021/03/06 21:42:09;;;;;;;8.00;6.60;;;;;;;5.94;37.04;101456.78;10348885;28;20064;-69
2021/03/06 21:47:10;;;;;;;8.82;7.30;;;;;;;5.85;37.28;101441.31;10347192;28;20125;-71
2021/03/06 21:52:11;;;;;;;8.02;6.22;;;;;;;5.80;37.27;101445.97;10342891;28;20444;-67
2021/03/06 21:57:13;;;;;;;8.25;6.88;;;;;;;5.76;37.08;101433.78;10345599;28;20125;-71
2021/03/06 22:02:14;;;;;;;7.22;6.53;;;;;;;5.62;37.77;101437.84;10345894;28;20049;-71
2021/03/06 22:07:16;;;;;;;8.82;6.88;;;;;;;5.64;37.84;101425.47;10346138;28;20053;-73
2021/03/06 22:12:28;;;;;;;7.35;6.03;;;;;;;5.64;38.00;101414.91;10343365;28;20049;-73
2021/03/06 22:17:29;;;;;;;12.45;9.63;;;;;;;5.63;37.90;101407.88;10341280;28;20132;-71
2021/03/06 22:22:31;;;;;;;13.07;11.18;;;;;;;5.66;37.82;101402.47;10344735;28;20081;-71
2021/03/06 22:27:33;;;;;;;21.95;13.63;;;;;;;5.46;38.22;101394.50;10341788;28;20089;-73
2021/03/06 22:32:34;;;;;;;8.35;7.45;;;;;;;5.45;38.54;101398.94;10342391;28;20049;-72
2021/03/06 22:37:36;;;;;;;10.93;9.13;;;;;;;5.34;38.60;101402.94;10342908;28;20052;-71
2021/03/06 22:42:47;;;;;;;10.90;8.57;;;;;;;5.28;38.64;101386.41;10345453;28;20042;-69
2021/03/06 22:47:49;;;;;;;9.18;7.07;;;;;;;5.22;37.97;101388.44;10359668;28;20069;-71
2021/03/06 22:52:51;;;;;;;6.55;5.90;;;;;;;5.07;38.21;101372.28;10371949;28;20052;-69
2021/03/06 22:57:52;;;;;;;6.93;6.22;;;;;;;5.01;38.59;101379.59;10353126;28;20129;-69
2021/03/06 23:02:53;;;;;;;7.50;6.65;;;;;;;4.87;39.06;101367.78;10361921;28;20073;-68
2021/03/06 23:07:55;;;;;;;6.88;6.28;;;;;;;4.81;39.32;101360.13;10385764;28;20041;-67
2021/03/06 23:13:09;;;;;;;7.55;6.78;;;;;;;4.71;39.69;101359.59;10396501;28;20049;-66
2021/03/06 23:18:11;;;;;;;7.38;6.68;;;;;;;4.59;39.90;101358.31;10354449;28;20112;-69
2021/03/06 23:23:13;;;;;;;10.35;9.35;;;;;;;4.48;40.97;101360.47;10375215;28;25198;-69
2021/03/06 23:28:15;;;;;;;10.65;8.68;;;;;;;4.42;41.40;101347.53;10351029;28;20518;-68